Time;durP1;ratioP1;P1;durP2;ratioP2;P2;SDS_P1;SDS_P2;PMS_P1;PMS_P2;Temp;Humidity;BMP_temperature;BMP_pressure;BME280_temperature;BME280_humidity;BME280_pressure;Samples;Min_cycle;Max_cycle;Signal;HPM_P1;HPM_P2
2021/08/28 00:00:07;;;;;;;10.57;8.30;;;;;;;11.26;100.00;95784.59;1034755;28;20080;-68
2021/08/28 00:00:37;;;;;;;11.23;8.60;;;;;;;11.25;100.00;95781.19;1028617;28;20568;-71
2021/08/28 00:01:08;;;;;;;12.85;7.75;;;;;;;11.24;100.00;95778.84;1030584;28;20304;-70
2021/08/28 00:01:41;;;;;;;9.52;7.57;;;;;;;11.17;100.00;95770.44;1031178;28;20030;-68
2021/08/28 00:02:12;;;;;;;16.45;8.55;;;;;;;11.20;100.00;95777.78;1033944;28;20272;-71
2021/08/28 00:02:42;;;;;;;12.80;8.88;;;;;;;11.21;100.00;95780.16;1035458;28;20033;-68
2021/08/28 00:03:13;;;;;;;12.50;8.80;;;;;;;11.14;100.00;95773.59;1034896;28;20307;-71
2021/08/28 00:03:43;;;;;;;13.00;9.23;;;;;;;11.22;100.00;95786.97;1034795;28;20030;-69
2021/08/28 00:04:14;;;;;;;11.80;8.43;;;;;;;11.23;100.00;95782.50;1033585;28;20396;-71
2021/08/28 00:04:45;;;;;;;14.95;8.70;;;;;;;11.20;100.00;95789.09;1031331;28;20376;-70
2021/08/28 00:05:15;;;;;;;11.88;8.88;;;;;;;11.18;100.00;95774.66;1031115;28;20035;-69
2021/08/28 00:05:46;;;;;;;11.75;8.48;;;;;;;11.15;100.00;95785.69;1031429;28;20276;-70
2021/08/28 00:06:16;;;;;;;10.98;8.35;;;;;;;11.14;100.00;95784.91;1021333;28;20139;-70
2021/08/28 00:06:47;;;;;;;12.20;9.45;;;;;;;11.12;100.00;95780.94;1027581;28;20026;-71
2021/08/28 00:07:17;;;;;;;14.10;9.55;;;;;;;11.04;100.00;95764.69;1023357;29;20035;-70
2021/08/28 00:07:48;;;;;;;13.15;9.30;;;;;;;11.12;100.00;95778.31;1026893;28;20022;-70
2021/08/28 00:08:18;;;;;;;16.30;10.15;;;;;;;11.07;100.00;95768.63;1035434;28;20042;-70
2021/08/28 00:08:49;;;;;;;15.65;10.20;;;;;;;11.05;100.00;95771.50;1031223;28;20033;-70
2021/08/28 00:09:19;;;;;;;17.08;10.27;;;;;;;11.03;100.00;95773.63;1027222;28;20031;-69
2021/08/28 00:09:49;;;;;;;14.60;9.10;;;;;;;11.12;100.00;95775.69;1031350;28;20030;-70
2021/08/28 00:10:21;;;;;;;14.43;9.95;;;;;;;11.09;100.00;95772.53;1023394;29;20027;-70
2021/08/28 00:10:52;;;;;;;15.05;10.40;;;;;;;11.09;100.00;95779.63;1023557;29;20019;-70
2021/08/28 00:11:22;;;;;;;16.17;10.38;;;;;;;11.00;100.00;95766.25;1022605;28;20303;-70
2021/08/28 00:11:53;;;;;;;16.25;10.75;;;;;;;11.07;100.00;95779.13;1031391;28;20033;-68
2021/08/28 00:12:23;;;;;;;13.43;9.23;;;;;;;11.07;100.00;95779.91;1035408;28;20033;-68
2021/08/28 00:12:54;;;;;;;14.35;9.55;;;;;;;10.97;100.00;95774.66;1026849;28;20484;-68
2021/08/28 00:13:27;;;;;;;14.32;9.40;;;;;;;10.96;100.00;95770.44;1031283;28;20045;-70
2021/08/28 00:13:58;;;;;;;16.98;9.45;;;;;;;11.05;100.00;95774.13;1023238;29;20038;-70
2021/08/28 00:14:28;;;;;;;16.58;10.13;;;;;;;11.06;100.00;95769.66;1023673;28;20285;-69
2021/08/28 00:15:00;;;;;;;16.38;11.15;;;;;;;11.07;100.00;95779.91;1031485;28;20480;-70
2021/08/28 00:15:30;;;;;;;15.05;10.18;;;;;;;11.05;100.00;95775.97;1028161;28;20105;-70
2021/08/28 00:16:01;;;;;;;14.85;9.98;;;;;;;11.04;100.00;95775.19;1039266;28;20335;-70
2021/08/28 00:16:31;;;;;;;13.85;9.95;;;;;;;10.98;100.00;95762.31;1035198;28;20042;-68
2021/08/28 00:17:02;;;;;;;17.10;9.95;;;;;;;11.03;100.00;95778.06;1031350;28;20026;-68
2021/08/28 00:17:33;;;;;;;15.70;9.48;;;;;;;11.01;100.00;95773.09;1031309;28;20037;-70
2021/08/28 00:18:04;;;;;;;13.82;10.48;;;;;;;11.05;100.00;95768.88;1030661;28;20710;-70
2021/08/28 00:18:34;;;;;;;15.50;9.80;;;;;;;11.05;100.00;95771.50;1027364;28;20273;-69
2021/08/28 00:19:05;;;;;;;15.55;10.93;;;;;;;10.98;100.00;95760.47;1031324;28;20147;-71
2021/08/28 00:19:35;;;;;;;16.85;10.95;;;;;;;11.09;100.00;95777.78;1027193;28;20027;-68
2021/08/28 00:20:10;;;;;;;17.88;11.98;;;;;;;11.09;100.00;95780.41;1031109;28;20057;-69
2021/08/28 00:20:40;;;;;;;19.90;12.05;;;;;;;11.09;100.00;95772.53;1031485;28;20041;-68
2021/08/28 00:21:11;;;;;;;17.42;10.85;;;;;;;11.05;100.00;95766.25;1031115;28;20826;-67
2021/08/28 00:21:41;;;;;;;19.13;10.75;;;;;;;11.08;100.00;95770.97;1034689;28;20028;-68
2021/08/28 00:22:12;;;;;;;17.58;10.45;;;;;;;11.06;100.00;95773.06;1035035;28;20677;-68
2021/08/28 00:22:43;;;;;;;13.10;9.82;;;;;;;11.07;100.00;95768.63;1031342;28;20504;-67
2021/08/28 00:23:14;;;;;;;19.73;11.18;;;;;;;11.04;100.00;95769.94;1033835;28;20029;-67
2021/08/28 00:23:44;;;;;;;16.92;10.10;;;;;;;11.03;100.00;95771.00;1031262;28;20305;-71
2021/08/28 00:24:15;;;;;;;17.48;10.32;;;;;;;11.04;100.00;95769.16;1027201;28;20019;-68
2021/08/28 00:24:45;;;;;;;16.08;9.55;;;;;;;11.02;100.00;95771.25;1026631;28;20061;-68
2021/08/28 00:25:16;;;;;;;17.40;9.68;;;;;;;11.00;100.00;95776.78;1027231;28;20031;-70
2021/08/28 00:25:46;;;;;;;16.15;10.13;;;;;;;11.02;100.00;95771.25;1027399;28;20100;-70
2021/08/28 00:26:17;;;;;;;16.83;10.73;;;;;;;11.04;100.00;95771.78;1031200;28;20034;-68
2021/08/28 00:26:47;;;;;;;16.83;11.43;;;;;;;11.05;100.00;95770.72;1031289;28;20030;-68
2021/08/28 00:27:17;;;;;;;21.25;12.20;;;;;;;11.04;100.00;95767.31;1035325;28;20030;-68
2021/08/28 00:27:48;;;;;;;18.35;11.30;;;;;;;11.03;100.00;95772.81;1031168;28;20103;-68
2021/08/28 00:28:18;;;;;;;14.93;10.00;;;;;;;10.96;100.00;95765.19;1024515;28;20027;-68
2021/08/28 00:28:49;;;;;;;15.88;10.50;;;;;;;11.02;100.00;95769.41;1023414;29;20015;-69
2021/08/28 00:29:19;;;;;;;17.60;10.13;;;;;;;10.99;100.00;95767.28;1019248;29;20031;-68
2021/08/28 00:29:50;;;;;;;19.27;10.88;;;;;;;10.99;100.00;95762.03;1020236;28;20028;-68
2021/08/28 00:30:20;;;;;;;17.13;10.98;;;;;;;11.02;100.00;95769.41;1027260;28;20030;-68
2021/08/28 00:30:51;;;;;;;20.42;11.40;;;;;;;11.02;100.00;95769.41;1031225;28;20034;-68
2021/08/28 00:31:21;;;;;;;18.98;11.20;;;;;;;10.95;100.00;95758.38;1030749;28;20042;-68
2021/08/28 00:31:51;;;;;;;19.67;11.32;;;;;;;11.02;100.00;95761.53;1026777;28;20026;-69
2021/08/28 00:32:22;;;;;;;17.77;11.35;;;;;;;11.01;100.00;95757.31;1022987;29;20477;-67
2021/08/28 00:32:52;;;;;;;15.23;10.40;;;;;;;11.05;100.00;95768.09;1023237;29;20039;-68
2021/08/28 00:33:23;;;;;;;21.45;11.68;;;;;;;11.01;100.00;95765.22;1020625;29;20546;-68
2021/08/28 00:33:53;;;;;;;19.95;10.50;;;;;;;10.99;100.00;95769.91;1023263;28;20027;-67
2021/08/28 00:34:24;;;;;;;13.90;9.85;;;;;;;11.00;100.00;95763.63;1027324;28;20038;-67
2021/08/28 00:34:54;;;;;;;15.02;9.70;;;;;;;10.98;100.00;95765.72;1031170;28;20030;-70
2021/08/28 00:35:25;;;;;;;15.82;10.52;;;;;;;10.99;100.00;95766.50;1035397;28;20037;-70
2021/08/28 00:35:55;;;;;;;16.10;10.30;;;;;;;10.95;100.00;95754.97;1031226;28;20567;-66
2021/08/28 00:36:25;;;;;;;18.25;9.52;;;;;;;10.99;100.00;95762.03;1023150;29;20714;-69
2021/08/28 00:36:59;;;;;;;16.45;11.07;;;;;;;10.99;100.00;95764.66;1019427;28;20177;-70
2021/08/28 00:37:29;;;;;;;13.23;9.68;;;;;;;10.95;100.00;95761.00;1023742;28;20080;-70
2021/08/28 00:38:00;;;;;;;14.70;10.27;;;;;;;10.98;100.00;95757.84;1026548;28;20285;-69
2021/08/28 00:38:30;;;;;;;16.95;9.73;;;;;;;11.00;100.00;95763.63;1037172;28;20606;-69
2021/08/28 00:39:01;;;;;;;19.23;12.10;;;;;;;11.00;100.00;95768.06;1039293;28;20109;-68
2021/08/28 00:39:31;;;;;;;18.30;11.93;;;;;;;11.00;100.00;95762.81;1038657;28;20025;-69
2021/08/28 00:40:02;;;;;;;17.33;11.18;;;;;;;10.99;100.00;95771.75;1036719;28;20056;-70
2021/08/28 00:40:33;;;;;;;14.82;9.95;;;;;;;10.99;100.00;95767.28;1031099;28;20026;-70
2021/08/28 00:41:04;;;;;;;18.75;11.80;;;;;;;11.00;100.00;95758.38;1031400;28;20030;-69
2021/08/28 00:41:34;;;;;;;17.52;11.65;;;;;;;11.01;100.00;95764.41;1034688;28;20268;-71
2021/08/28 00:42:05;;;;;;;17.30;11.25;;;;;;;11.00;100.00;95762.81;1034452;28;20030;-68
2021/08/28 00:42:50;;;;;;;14.05;9.65;;;;;;;10.98;100.00;95759.69;1035327;28;20101;-69
2021/08/28 00:43:20;;;;;;;16.30;9.43;;;;;;;10.96;100.00;95761.78;1034134;28;20028;-68
2021/08/28 00:43:51;;;;;;;16.48;11.13;;;;;;;10.96;100.00;95762.56;1032505;28;20264;-68
2021/08/28 00:44:21;;;;;;;14.95;10.00;;;;;;;10.95;100.00;95766.25;1034796;28;20029;-67
2021/08/28 00:44:54;;;;;;;16.08;10.80;;;;;;;10.97;100.00;95760.75;1027070;28;20023;-69
2021/08/28 00:45:37;;;;;;;16.13;11.25;;;;;;;10.92;100.00;95755.50;1031296;28;20034;-68
2021/08/28 00:46:08;;;;;;;21.38;11.50;;;;;;;10.98;100.00;95759.69;1027343;28;20319;-68
2021/08/28 00:46:38;;;;;;;17.38;10.75;;;;;;;10.96;100.00;95757.31;1027258;28;20114;-67
2021/08/28 00:47:11;;;;;;;17.40;10.45;;;;;;;10.94;100.00;95756.81;1031434;28;20025;-68
2021/08/28 00:47:48;;;;;;;16.85;10.13;;;;;;;10.94;100.00;95759.44;1027201;28;20025;-68
2021/08/28 00:48:19;;;;;;;15.38;9.93;;;;;;;10.94;100.00;95764.69;1027096;28;20502;-69
2021/08/28 00:48:49;;;;;;;15.73;10.50;;;;;;;10.95;100.00;95761.00;1025259;28;20305;-69
2021/08/28 00:49:20;;;;;;;22.00;12.50;;;;;;;10.96;100.00;95764.41;1031086;28;20030;-68
2021/08/28 00:49:50;;;;;;;20.15;12.65;;;;;;;10.96;100.00;95762.56;1027519;28;20022;-70
2021/08/28 00:50:22;;;;;;;21.02;13.00;;;;;;;10.98;100.00;95760.47;1025632;28;20034;-69
2021/08/28 00:50:53;;;;;;;15.98;10.20;;;;;;;10.96;100.00;95764.41;1031483;28;20934;-70
2021/08/28 00:51:24;;;;;;;14.68;9.48;;;;;;;10.92;100.00;95756.28;1034903;28;20380;-68
2021/08/28 00:51:54;;;;;;;16.95;9.80;;;;;;;10.93;100.00;95768.38;1036093;28;20272;-68
2021/08/28 00:52:25;;;;;;;21.08;11.57;;;;;;;10.87;100.00;95753.69;1039354;28;20092;-70
2021/08/28 00:52:55;;;;;;;17.67;11.27;;;;;;;10.92;100.00;95758.13;1031047;28;20037;-67
2021/08/28 00:53:26;;;;;;;18.90;11.05;;;;;;;10.89;100.00;95750.78;1027708;28;20038;-70
2021/08/28 00:53:56;;;;;;;16.70;11.85;;;;;;;10.92;100.00;95756.28;1035884;28;20055;-69
2021/08/28 00:54:27;;;;;;;19.25;11.57;;;;;;;10.83;100.00;95747.34;1031654;28;20022;-68
2021/08/28 00:54:57;;;;;;;22.35;12.38;;;;;;;10.92;100.00;95760.75;1031278;28;20041;-70
2021/08/28 00:55:29;;;;;;;20.00;12.27;;;;;;;10.91;100.00;95759.19;1034720;28;20407;-70
2021/08/28 00:55:59;;;;;;;16.55;11.07;;;;;;;10.90;100.00;95753.16;1031948;28;20026;-70
2021/08/28 00:56:30;;;;;;;16.60;10.43;;;;;;;10.89;100.00;95762.06;1031152;28;20281;-70
2021/08/28 00:57:01;;;;;;;16.77;10.93;;;;;;;10.81;100.00;95755.50;1031264;28;20034;-69
2021/08/28 00:57:33;;;;;;;16.02;10.32;;;;;;;10.90;100.00;95762.84;1030520;28;20104;-69
2021/08/28 00:58:06;;;;;;;15.75;10.18;;;;;;;10.90;100.00;95763.66;1031111;28;20265;-69
2021/08/28 00:58:37;;;;;;;17.90;11.77;;;;;;;10.89;100.00;95756.81;1030767;28;20262;-70
2021/08/28 00:59:07;;;;;;;19.08;11.98;;;;;;;10.91;100.00;95759.97;1027528;28;20258;-71
2021/08/28 00:59:39;;;;;;;22.73;10.75;;;;;;;10.83;100.00;95753.41;1031141;28;20034;-70
2021/08/28 01:00:10;;;;;;;15.85;9.68;;;;;;;10.92;100.00;95766.00;1028252;28;20042;-70
2021/08/28 01:00:45;;;;;;;18.05;10.82;;;;;;;10.85;100.00;95756.53;1033375;28;20791;-70
2021/08/28 01:01:18;;;;;;;19.10;11.50;;;;;;;10.89;100.00;95764.69;1030801;28;20585;-69
2021/08/28 01:01:49;;;;;;;16.17;10.27;;;;;;;10.89;100.00;95756.03;1035151;28;20746;-69
2021/08/28 01:02:19;;;;;;;13.95;9.65;;;;;;;10.89;100.00;95756.81;1026333;28;20270;-69
2021/08/28 01:02:50;;;;;;;16.55;10.98;;;;;;;10.92;100.00;95761.53;1027420;28;20431;-70
2021/08/28 01:03:24;;;;;;;15.73;9.57;;;;;;;10.87;100.00;95753.69;1031246;28;20026;-69
2021/08/28 01:03:58;;;;;;;14.57;9.90;;;;;;;10.90;100.00;95760.22;1030700;28;20050;-69
2021/08/28 01:04:29;;;;;;;16.50;10.85;;;;;;;10.95;100.00;95761.00;1031506;28;20310;-70
2021/08/28 01:05:11;;;;;;;16.90;10.30;;;;;;;10.93;100.00;95763.13;1023235;29;20346;-70
2021/08/28 01:05:51;;;;;;;17.23;10.88;;;;;;;10.87;100.00;95748.41;1032954;28;20273;-70
2021/08/28 01:06:27;;;;;;;20.25;11.65;;;;;;;10.89;100.00;95751.56;1026561;28;20274;-70
2021/08/28 01:06:57;;;;;;;16.15;10.85;;;;;;;10.94;100.00;95762.06;1015434;29;20664;-71
2021/08/28 01:07:36;;;;;;;17.27;11.65;;;;;;;10.95;100.00;95762.84;1023142;29;20369;-69
2021/08/28 01:08:16;;;;;;;18.52;10.38;;;;;;;10.96;100.00;95762.56;1029051;28;20031;-71
2021/08/28 01:08:51;;;;;;;18.90;10.55;;;;;;;10.89;100.00;95751.56;1036739;28;20280;-70
2021/08/28 01:09:26;;;;;;;16.17;10.50;;;;;;;10.96;100.00;95767.03;1032458;28;20026;-70
2021/08/28 01:09:58;;;;;;;24.67;13.13;;;;;;;10.99;100.00;95761.25;1035003;28;20273;-70
2021/08/28 01:10:36;;;;;;;16.15;10.45;;;;;;;10.97;100.00;95761.53;1023092;29;20347;-70
2021/08/28 01:11:29;;;;;;;18.67;11.38;;;;;;;11.00;100.00;95761.00;1019782;29;20637;-69
2021/08/28 01:12:15;;;;;;;17.63;10.32;;;;;;;10.94;100.00;95750.78;1023075;28;20262;-69
2021/08/28 01:12:46;;;;;;;13.48;9.23;;;;;;;10.98;100.00;95765.72;1039540;28;20279;-71
2021/08/28 01:13:17;;;;;;;15.73;10.02;;;;;;;10.92;100.00;95758.13;1035195;28;20269;-70
2021/08/28 01:13:58;;;;;;;15.80;9.90;;;;;;;10.95;100.00;95758.38;1031038;28;20270;-70
2021/08/28 01:14:29;;;;;;;17.67;10.23;;;;;;;10.87;100.00;95750.25;1026161;28;20026;-70
2021/08/28 01:15:09;;;;;;;14.32;9.82;;;;;;;10.90;100.00;95758.41;1027090;28;20344;-70
2021/08/28 01:15:40;;;;;;;17.55;11.35;;;;;;;10.90;100.00;95753.16;1035119;28;20265;-70
2021/08/28 01:16:10;;;;;;;18.10;11.77;;;;;;;10.98;100.00;95757.84;1030428;28;20261;-70
2021/08/28 01:16:41;;;;;;;19.25;12.20;;;;;;;11.00;100.00;95763.63;1031190;28;20030;-70
2021/08/28 01:17:13;;;;;;;17.70;10.85;;;;;;;10.91;100.00;95754.72;1031140;28;20491;-70
2021/08/28 01:17:45;;;;;;;16.08;11.23;;;;;;;10.94;100.00;95756.81;1023092;29;20290;-69
2021/08/28 01:18:15;;;;;;;17.02;10.38;;;;;;;10.95;100.00;95765.47;1026669;28;20286;-69
2021/08/28 01:18:46;;;;;;;19.10;11.10;;;;;;;10.94;100.00;95759.44;1022922;29;20594;-70
2021/08/28 01:19:21;;;;;;;20.13;11.77;;;;;;;10.97;100.00;95758.91;1021948;29;20027;-70
2021/08/28 01:20:02;;;;;;;18.42;10.85;;;;;;;10.97;100.00;95753.66;1022885;29;20023;-70
2021/08/28 01:20:45;;;;;;;25.63;11.93;;;;;;;10.97;100.00;95753.66;1030196;28;20261;-71
2021/08/28 01:21:28;;;;;;;17.05;11.10;;;;;;;10.92;100.00;95752.88;1034337;28;20072;-69
2021/08/28 01:21:59;;;;;;;17.20;10.70;;;;;;;10.94;100.00;95754.19;1027063;28;20348;-70
2021/08/28 01:22:29;;;;;;;18.65;10.98;;;;;;;10.95;100.00;95758.38;1026882;28;20274;-68
2021/08/28 01:23:00;;;;;;;17.55;10.82;;;;;;;10.94;100.00;95758.66;1029411;28;20049;-68
2021/08/28 01:23:32;;;;;;;16.27;10.73;;;;;;;10.95;100.00;95755.75;1027067;28;20022;-68
2021/08/28 01:24:04;;;;;;;18.83;12.40;;;;;;;10.98;100.00;95757.84;1030843;28;20074;-68
2021/08/28 01:24:35;;;;;;;15.73;10.82;;;;;;;10.98;100.00;95760.47;1025465;28;20294;-68
2021/08/28 01:25:07;;;;;;;16.88;9.85;;;;;;;10.91;100.00;95744.22;1023356;28;20319;-68
2021/08/28 01:25:37;;;;;;;15.25;9.90;;;;;;;10.96;100.00;95752.06;1034642;28;20717;-70
2021/08/28 01:26:12;;;;;;;15.70;10.00;;;;;;;10.96;100.00;95765.19;1024813;28;20258;-69
2021/08/28 01:26:49;;;;;;;14.93;10.52;;;;;;;10.98;100.00;95757.84;1026616;28;20055;-71
2021/08/28 01:27:24;;;;;;;14.55;10.18;;;;;;;10.93;100.00;95751.81;1031716;28;20258;-68
2021/08/28 01:28:13;;;;;;;17.05;11.32;;;;;;;10.98;100.00;95755.22;1030945;28;20828;-69
2021/08/28 01:28:46;;;;;;;17.85;10.50;;;;;;;10.97;100.00;95761.53;1030675;28;20261;-68
2021/08/28 01:29:18;;;;;;;17.35;11.68;;;;;;;11.00;100.00;95754.94;1026953;28;20337;-69
2021/08/28 01:29:49;;;;;;;19.00;10.88;;;;;;;10.99;100.00;95762.03;1027215;28;20270;-68
2021/08/28 01:30:19;;;;;;;23.58;11.93;;;;;;;10.99;100.00;95756.78;1032663;28;20739;-68
2021/08/28 01:30:50;;;;;;;19.15;10.77;;;;;;;10.96;100.00;95762.56;1030888;28;20022;-69
2021/08/28 01:31:21;;;;;;;14.32;10.10;;;;;;;10.88;100.00;95755.25;1026530;28;20030;-70
2021/08/28 01:31:51;;;;;;;18.75;10.82;;;;;;;10.95;100.00;95758.38;1027430;28;20062;-69
2021/08/28 01:32:22;;;;;;;18.10;10.60;;;;;;;10.94;100.00;95763.91;1027029;28;20110;-69
2021/08/28 01:32:52;;;;;;;22.08;11.50;;;;;;;10.88;100.00;95752.63;1026719;28;20027;-67
2021/08/28 01:33:23;;;;;;;21.45;12.60;;;;;;;10.92;100.00;95750.25;1031113;28;20022;-69
2021/08/28 01:33:53;;;;;;;22.42;12.55;;;;;;;10.93;100.00;95752.63;1027139;28;20019;-67
2021/08/28 01:34:24;;;;;;;16.00;10.48;;;;;;;10.87;100.00;95750.25;1027007;28;20030;-70
2021/08/28 01:34:55;;;;;;;21.67;10.85;;;;;;;10.94;100.00;95758.66;1026945;28;20039;-66
2021/08/28 01:35:26;;;;;;;22.02;12.00;;;;;;;10.97;100.00;95758.91;1023380;28;20035;-67
2021/08/28 01:35:56;;;;;;;21.35;11.32;;;;;;;10.98;100.00;95760.47;1023299;29;20306;-68
2021/08/28 01:36:27;;;;;;;18.98;11.55;;;;;;;10.99;100.00;95759.41;1017675;29;20023;-68
2021/08/28 01:36:57;;;;;;;20.60;10.93;;;;;;;10.93;100.00;95747.38;1019258;29;20028;-69
2021/08/28 01:37:28;;;;;;;19.27;11.15;;;;;;;10.97;100.00;95764.16;1027124;28;20019;-69
2021/08/28 01:37:58;;;;;;;14.48;10.07;;;;;;;10.91;100.00;95756.56;1030870;28;20037;-68
2021/08/28 01:38:29;;;;;;;17.70;10.73;;;;;;;10.95;100.00;95758.38;1039326;28;20036;-69
2021/08/28 01:39:00;;;;;;;20.42;11.60;;;;;;;10.96;100.00;95767.81;1027007;28;20089;-68
2021/08/28 01:39:31;;;;;;;17.00;9.95;;;;;;;10.96;100.00;95762.56;1026411;28;20495;-69
2021/08/28 01:40:03;;;;;;;18.05;11.30;;;;;;;10.94;100.00;95758.66;1031164;28;20345;-70
2021/08/28 01:40:34;;;;;;;15.25;11.05;;;;;;;10.94;100.00;95764.69;1027016;28;20090;-68
2021/08/28 01:41:04;;;;;;;15.68;10.43;;;;;;;10.93;100.00;95760.50;1023101;29;20684;-70
2021/08/28 01:41:36;;;;;;;17.98;10.85;;;;;;;10.93;100.00;95757.88;1023706;28;20398;-69
2021/08/28 01:42:07;;;;;;;16.35;10.27;;;;;;;10.92;100.00;95761.53;1023091;29;20101;-71
2021/08/28 01:42:38;;;;;;;16.05;9.90;;;;;;;10.90;100.00;95761.03;1023100;29;20881;-70
2021/08/28 01:43:08;;;;;;;16.88;10.80;;;;;;;10.93;100.00;95765.75;1028302;28;20019;-68
2021/08/28 01:43:39;;;;;;;17.13;10.38;;;;;;;10.92;100.00;95758.13;1030917;28;20278;-69
2021/08/28 01:44:10;;;;;;;20.23;10.25;;;;;;;10.82;100.00;95756.28;1027205;28;20015;-68
2021/08/28 01:44:47;;;;;;;13.90;9.52;;;;;;;10.88;100.00;95764.97;1025399;28;20066;-68
2021/08/28 01:45:21;;;;;;;17.58;10.80;;;;;;;10.88;100.00;95760.50;1017483;28;20686;-69
2021/08/28 01:45:51;;;;;;;17.77;10.35;;;;;;;10.86;100.00;95762.56;1028091;28;20266;-67
2021/08/28 01:46:22;;;;;;;18.85;11.60;;;;;;;10.91;100.00;95759.19;1026380;28;20266;-67
2021/08/28 01:46:53;;;;;;;16.67;10.77;;;;;;;10.87;100.00;95761.53;1022959;29;20027;-70
2021/08/28 01:47:24;;;;;;;16.35;10.27;;;;;;;10.90;100.00;95763.66;1018603;29;20280;-67
2021/08/28 01:47:54;;;;;;;18.25;11.50;;;;;;;10.84;100.00;95760.22;1030737;28;20141;-68
2021/08/28 01:48:25;;;;;;;18.23;11.57;;;;;;;10.88;100.00;95763.13;1030488;28;20323;-67
2021/08/28 01:48:56;;;;;;;16.08;10.85;;;;;;;10.89;100.00;95759.44;1023108;28;20035;-66
2021/08/28 01:49:27;;;;;;;16.70;11.15;;;;;;;10.88;100.00;95754.47;1022784;28;20046;-70
2021/08/28 01:49:57;;;;;;;16.75;11.15;;;;;;;10.85;100.00;95750.50;1030381;28;21148;-70
2021/08/28 01:50:28;;;;;;;18.10;11.98;;;;;;;10.92;100.00;95756.28;1026799;28;20362;-70
2021/08/28 01:50:58;;;;;;;16.80;11.15;;;;;;;10.92;100.00;95758.91;1026931;28;20422;-68
2021/08/28 01:51:29;;;;;;;18.40;10.32;;;;;;;10.87;100.00;95758.94;1021527;29;20027;-69
2021/08/28 01:51:59;;;;;;;19.77;11.90;;;;;;;10.91;100.00;95753.94;1022861;29;20139;-69
2021/08/28 01:52:29;;;;;;;16.42;10.38;;;;;;;10.93;100.00;95763.13;1022932;29;20027;-68
2021/08/28 01:53:00;;;;;;;17.08;10.00;;;;;;;10.89;100.00;95756.81;1026805;28;20543;-69
2021/08/28 01:53:31;;;;;;;13.85;9.85;;;;;;;10.88;100.00;95754.47;1027654;28;20105;-69
2021/08/28 01:54:01;;;;;;;13.02;10.07;;;;;;;10.87;100.00;95755.50;1026763;28;20021;-69
2021/08/28 01:54:32;;;;;;;16.45;10.38;;;;;;;10.82;100.00;95745.78;1030837;28;20030;-69
2021/08/28 01:55:03;;;;;;;20.38;11.70;;;;;;;10.95;100.00;95760.22;1028920;28;20069;-69
2021/08/28 01:55:34;;;;;;;16.42;10.98;;;;;;;10.87;100.00;95751.03;1018844;29;20043;-69
2021/08/28 01:56:04;;;;;;;17.27;10.48;;;;;;;10.89;100.00;95756.81;1022944;29;20263;-69
2021/08/28 01:56:35;;;;;;;13.65;10.05;;;;;;;10.90;100.00;95760.22;1026426;28;20027;-68
2021/08/28 01:57:06;;;;;;;15.93;10.48;;;;;;;10.90;100.00;95762.84;1030837;28;20491;-69
2021/08/28 01:57:36;;;;;;;17.20;10.50;;;;;;;10.81;100.00;95754.72;1030744;28;20373;-68
2021/08/28 01:58:07;;;;;;;19.05;11.63;;;;;;;10.87;100.00;95758.13;1030674;28;20034;-69
2021/08/28 01:58:37;;;;;;;15.18;10.60;;;;;;;10.87;100.00;95758.13;1027668;28;20070;-69
2021/08/28 01:59:08;;;;;;;18.65;10.63;;;;;;;10.88;100.00;95760.50;1030993;28;20080;-69
2021/08/28 01:59:38;;;;;;;17.23;11.25;;;;;;;10.82;100.00;95751.03;1030978;28;20030;-69
2021/08/28 02:00:09;;;;;;;16.08;11.10;;;;;;;10.90;100.00;95761.03;1024068;28;20044;-69
2021/08/28 02:00:39;;;;;;;16.52;11.10;;;;;;;10.89;100.00;95762.06;1030795;28;20502;-68
2021/08/28 02:01:10;;;;;;;17.52;10.88;;;;;;;10.86;100.00;95762.56;1026420;28;20155;-67
2021/08/28 02:01:40;;;;;;;14.85;10.52;;;;;;;10.83;100.00;95766.53;1026923;28;20082;-69
2021/08/28 02:02:11;;;;;;;19.92;12.15;;;;;;;10.83;100.00;95760.47;1034892;28;20032;-69
2021/08/28 02:02:41;;;;;;;15.80;11.15;;;;;;;10.85;100.00;95766.25;1039060;28;20610;-69
2021/08/28 02:03:12;;;;;;;21.35;11.68;;;;;;;10.86;100.00;95759.94;1039178;28;20649;-70
2021/08/28 02:03:42;;;;;;;19.55;11.50;;;;;;;10.87;100.00;95763.38;1034681;28;20037;-69
2021/08/28 02:04:13;;;;;;;19.48;11.55;;;;;;;10.87;100.00;95764.16;1035120;28;20033;-69
2021/08/28 02:04:44;;;;;;;20.60;11.95;;;;;;;10.90;100.00;95763.66;1034995;28;20033;-69
2021/08/28 02:05:14;;;;;;;18.42;11.38;;;;;;;10.87;100.00;95766.00;1034506;28;20025;-68
2021/08/28 02:05:47;;;;;;;19.15;11.57;;;;;;;10.84;100.00;95754.19;1035048;28;20264;-69
2021/08/28 02:06:46;;;;;;;19.38;11.25;;;;;;;10.90;100.00;95761.03;1029334;28;20026;-69
2021/08/28 02:07:21;;;;;;;20.20;11.57;;;;;;;10.90;100.00;95763.66;1024080;28;20271;-71
2021/08/28 02:07:59;;;;;;;16.92;10.73;;;;;;;10.89;100.00;95762.06;1030648;28;20293;-68
2021/08/28 02:08:39;;;;;;;17.65;10.82;;;;;;;10.85;100.00;95756.53;1026392;28;20373;-67
2021/08/28 02:09:25;;;;;;;18.58;12.02;;;;;;;10.91;100.00;95762.59;1030881;28;20276;-69
2021/08/28 02:10:11;;;;;;;19.48;11.20;;;;;;;10.92;100.00;95761.53;1026885;28;20372;-70
2021/08/28 02:10:44;;;;;;;21.25;10.80;;;;;;;10.83;100.00;95748.16;1030160;28;20315;-68
2021/08/28 02:11:18;;;;;;;22.48;12.68;;;;;;;10.90;100.00;95755.78;1022419;29;20959;-68
2021/08/28 02:12:00;;;;;;;17.33;11.73;;;;;;;10.87;100.00;95753.69;1022558;29;20267;-69
2021/08/28 02:12:35;;;;;;;22.48;12.27;;;;;;;10.91;100.00;95757.34;1026846;28;20285;-68
2021/08/28 02:13:18;;;;;;;21.70;12.40;;;;;;;10.85;100.00;95761.00;1026808;28;20333;-67
2021/08/28 02:13:50;;;;;;;18.15;11.88;;;;;;;10.88;100.00;95754.47;1030649;28;20277;-68
2021/08/28 02:14:22;;;;;;;16.88;10.88;;;;;;;10.91;100.00;95759.97;1034868;28;20354;-70
2021/08/28 02:15:19;;;;;;;17.05;12.23;;;;;;;10.88;100.00;95757.88;1030662;28;20261;-68
2021/08/28 02:15:50;;;;;;;15.30;10.82;;;;;;;10.83;100.00;95748.16;1034753;28;20344;-71
2021/08/28 02:16:22;;;;;;;17.92;12.10;;;;;;;10.90;100.00;95757.59;1034826;28;20781;-68
2021/08/28 02:16:53;;;;;;;21.42;12.52;;;;;;;10.88;100.00;95750.00;1030743;28;20029;-68
2021/08/28 02:17:24;;;;;;;21.55;12.55;;;;;;;10.91;100.00;95759.19;1034505;28;20789;-69
2021/08/28 02:17:58;;;;;;;17.27;11.60;;;;;;;10.92;100.00;95756.28;1031001;28;20026;-68
2021/08/28 02:18:50;;;;;;;20.63;11.35;;;;;;;10.95;100.00;95760.22;1030837;28;20311;-68
2021/08/28 02:19:26;;;;;;;19.08;11.68;;;;;;;10.89;100.00;95746.31;1030337;28;20257;-68
2021/08/28 02:19:58;;;;;;;20.67;11.80;;;;;;;10.90;100.00;95744.47;1030535;28;20254;-68
2021/08/28 02:20:30;;;;;;;16.70;12.32;;;;;;;10.94;100.00;95751.56;1023593;28;20270;-69
2021/08/28 02:21:01;;;;;;;15.82;11.10;;;;;;;10.96;100.00;95761.78;1018979;29;20278;-70
2021/08/28 02:21:32;;;;;;;16.48;11.30;;;;;;;10.93;100.00;95752.63;1022833;28;20301;-68
2021/08/28 02:22:07;;;;;;;20.10;12.82;;;;;;;10.94;100.00;95754.19;1027879;28;20018;-70
2021/08/28 02:22:42;;;;;;;17.35;11.95;;;;;;;10.96;100.00;95751.28;1030644;28;20819;-68
2021/08/28 02:23:15;;;;;;;14.93;11.75;;;;;;;10.96;100.00;95759.16;1028452;28;20266;-70
2021/08/28 02:23:53;;;;;;;19.88;12.10;;;;;;;10.95;100.00;95749.72;1026840;28;20270;-70
2021/08/28 02:24:26;;;;;;;20.13;12.75;;;;;;;10.95;100.00;95761.00;1026803;28;20771;-69
2021/08/28 02:25:03;;;;;;;19.73;12.00;;;;;;;10.93;100.00;95741.31;1024851;28;20262;-68
2021/08/28 02:25:51;;;;;;;21.45;12.38;;;;;;;10.97;100.00;95752.88;1018887;28;20323;-70
2021/08/28 02:26:22;;;;;;;20.73;11.77;;;;;;;10.93;100.00;95752.63;1018509;29;20260;-69
2021/08/28 02:27:01;;;;;;;20.58;12.02;;;;;;;10.89;100.00;95748.94;1017224;29;21084;-70
2021/08/28 02:27:33;;;;;;;17.90;12.50;;;;;;;10.89;100.00;95748.94;1026846;28;20019;-70
2021/08/28 02:28:05;;;;;;;19.58;12.10;;;;;;;10.92;100.00;95753.66;1026778;28;20262;-70